createdAt,value
2022-12-23T00:01:59.947Z,26.55
2022-12-23T00:04:27.241Z,27.30
2022-12-23T00:06:54.523Z,26.50
2022-12-23T00:09:21.927Z,29.42
2022-12-23T00:12:07.849Z,31.33
2022-12-23T00:14:53.464Z,33.22
2022-12-23T00:17:23.185Z,28.63
2022-12-23T00:19:50.734Z,27.42
2022-12-23T00:22:18.046Z,23.13
2022-12-23T00:24:45.308Z,24.45
2022-12-23T00:27:12.637Z,27.50
2022-12-23T00:29:39.938Z,25.60
2022-12-23T00:32:07.291Z,29.70
2022-12-23T00:34:34.635Z,29.40
2022-12-23T00:37:02.110Z,28.20
2022-12-23T00:39:52.016Z,27.65
2022-12-23T00:42:40.498Z,24.90
2022-12-23T00:45:17.181Z,23.80
2022-12-23T00:48:03.136Z,24.40
2022-12-23T00:50:30.638Z,30.15
2022-12-23T00:52:58.077Z,26.20
2022-12-23T00:55:25.358Z,24.10
2022-12-23T00:57:52.643Z,24.15
2022-12-23T01:00:20.219Z,13.55
2022-12-23T01:03:06.131Z,21.70
2022-12-23T01:05:39.387Z,22.40
2022-12-23T01:08:09.435Z,19.93
2022-12-23T01:10:40.318Z,20.13
2022-12-23T01:13:08.371Z,23.05
2022-12-23T01:15:35.624Z,22.08
2022-12-23T01:18:02.927Z,25.17
2022-12-23T01:20:30.229Z,26.67
2022-12-23T01:22:57.770Z,21.27
2022-12-23T01:25:25.034Z,25.52
2022-12-23T01:27:52.332Z,23.88
2022-12-23T01:30:19.733Z,25.80
2022-12-23T01:32:48.389Z,25.80
2022-12-23T01:35:15.785Z,25.52
2022-12-23T01:37:43.047Z,26.45
2022-12-23T01:40:10.615Z,28.48
2022-12-23T01:42:43.780Z,27.15
2022-12-23T01:45:21.731Z,26.33
2022-12-23T01:47:57.130Z,22.63
2022-12-23T01:50:31.867Z,23.10
2022-12-23T01:53:26.439Z,30.75
2022-12-23T01:56:02.673Z,23.42
2022-12-23T01:58:34.471Z,22.63
2022-12-23T02:01:20.531Z,22.38
2022-12-23T02:03:48.790Z,22.92
2022-12-23T02:06:41.303Z,19.50
2022-12-23T02:09:19.220Z,24.73
2022-12-23T02:11:58.637Z,25.23
2022-12-23T02:15:04.532Z,27.63
2022-12-23T02:17:37.531Z,23.58
2022-12-23T02:20:29.503Z,20.55
2022-12-23T02:23:24.814Z,19.02
2022-12-23T02:25:52.159Z,20.77
2022-12-23T02:28:19.407Z,27.02
2022-12-23T02:30:48.640Z,16.42
2022-12-23T02:33:52.216Z,19.52
2022-12-23T02:36:34.474Z,21.02
2022-12-23T02:39:09.302Z,21.00
2022-12-23T02:41:38.998Z,25.02
2022-12-23T02:44:13.266Z,25.95
2022-12-23T02:46:48.435Z,21.17
2022-12-23T02:49:20.240Z,25.13
2022-12-23T02:51:50.720Z,24.43
2022-12-23T02:54:21.922Z,25.42
2022-12-23T02:56:50.483Z,23.45
2022-12-23T02:59:22.887Z,19.27
2022-12-23T03:01:50.296Z,24.95
2022-12-23T03:04:17.648Z,20.33
2022-12-23T03:06:46.516Z,20.45
2022-12-23T03:09:24.279Z,23.60
2022-12-23T03:12:28.684Z,18.63
2022-12-23T03:15:15.179Z,16.48
2022-12-23T03:17:54.440Z,13.30
2022-12-23T03:20:28.772Z,20.58
2022-12-23T03:23:05.897Z,29.88
2022-12-23T03:26:03.146Z,22.25
2022-12-23T03:28:40.230Z,24.23
2022-12-23T03:31:09.737Z,12.37
2022-12-23T03:33:39.202Z,21.30
2022-12-23T03:36:16.105Z,27.42
2022-12-23T03:38:43.886Z,23.42
2022-12-23T03:41:17.479Z,23.30
2022-12-23T03:43:50.975Z,23.37
2022-12-23T03:46:25.307Z,24.20
2022-12-23T03:48:54.341Z,26.13
2022-12-23T03:51:27.524Z,17.90
2022-12-23T03:54:03.930Z,20.40
2022-12-23T03:56:37.522Z,23.67
2022-12-23T03:59:14.499Z,13.70
2022-12-23T04:02:00.741Z,26.58
2022-12-23T04:04:52.363Z,27.95
2022-12-23T04:07:22.867Z,23.38
2022-12-23T04:09:51.514Z,27.20
2022-12-23T04:12:18.784Z,26.55
2022-12-23T04:14:47.734Z,20.38
2022-12-23T04:17:15.556Z,22.02
2022-12-23T04:19:45.486Z,22.45
2022-12-23T04:22:13.467Z,24.50
2022-12-23T04:24:40.829Z,22.45
2022-12-23T04:27:09.727Z,26.05
2022-12-23T04:29:37.011Z,28.00
2022-12-23T04:32:04.915Z,23.92
2022-12-23T04:34:32.223Z,24.33
2022-12-23T04:36:59.513Z,22.08
2022-12-23T04:39:26.771Z,26.27
2022-12-23T04:41:54.094Z,22.77
2022-12-23T04:44:21.418Z,23.50
2022-12-23T04:46:48.793Z,20.20
2022-12-23T04:49:16.234Z,22.98
2022-12-23T04:51:43.562Z,23.90
2022-12-23T04:54:10.877Z,25.80
2022-12-23T04:56:38.149Z,21.00
2022-12-23T04:59:05.526Z,23.07
2022-12-23T05:01:33.020Z,21.75
2022-12-23T05:04:00.395Z,16.48
2022-12-23T05:06:27.687Z,24.10
2022-12-23T05:08:54.968Z,15.65
2022-12-23T05:11:22.341Z,15.57
2022-12-23T05:13:49.709Z,16.60
2022-12-23T05:16:17.041Z,18.67
2022-12-23T05:18:44.396Z,18.20
2022-12-23T05:21:11.740Z,24.90
2022-12-23T05:23:39.093Z,22.20
2022-12-23T05:26:06.382Z,21.25
2022-12-23T05:28:33.706Z,26.92
2022-12-23T05:31:02.297Z,23.77
2022-12-23T05:33:29.891Z,22.88
2022-12-23T05:35:57.265Z,23.03
2022-12-23T05:38:24.756Z,22.70
2022-12-23T05:40:52.096Z,29.63
2022-12-23T05:43:19.596Z,14.18
2022-12-23T05:45:47.158Z,21.08
2022-12-23T05:48:14.483Z,14.80
2022-12-23T05:50:41.801Z,24.13
2022-12-23T05:53:09.120Z,20.02
2022-12-23T05:55:36.438Z,23.08
2022-12-23T05:58:03.784Z,24.67
2022-12-23T06:00:31.057Z,25.50
2022-12-23T06:02:58.511Z,26.98
2022-12-23T06:05:25.904Z,25.42
2022-12-23T06:07:53.161Z,24.83
2022-12-23T06:10:20.416Z,24.25
2022-12-23T06:12:47.736Z,22.17
2022-12-23T06:15:15.790Z,22.02
2022-12-23T06:17:43.212Z,25.35
2022-12-23T06:20:16.297Z,24.70
2022-12-23T06:22:47.379Z,21.92
2022-12-23T06:25:14.665Z,22.53
2022-12-23T06:27:41.901Z,22.27
2022-12-23T06:30:10.241Z,22.88
2022-12-23T06:32:38.744Z,21.83
2022-12-23T06:35:07.649Z,24.63
2022-12-23T06:37:34.956Z,22.33
2022-12-23T06:40:02.304Z,22.38
2022-12-23T06:42:29.833Z,23.60
2022-12-23T06:44:57.072Z,24.00
2022-12-23T06:47:24.339Z,24.27
2022-12-23T06:49:51.681Z,24.83
2022-12-23T06:52:19.018Z,24.30
2022-12-23T06:54:46.375Z,18.65
2022-12-23T06:57:13.717Z,24.42
2022-12-23T06:59:41.011Z,22.60
2022-12-23T07:02:12.832Z,23.63
2022-12-23T07:04:40.392Z,22.83
2022-12-23T07:07:07.713Z,23.55
2022-12-23T07:09:34.956Z,23.65
2022-12-23T07:12:03.903Z,24.70
2022-12-23T07:14:31.278Z,18.87
2022-12-23T07:16:58.660Z,22.90
2022-12-23T07:19:26.018Z,21.20
2022-12-23T07:21:53.449Z,26.42
2022-12-23T07:24:20.729Z,30.15
2022-12-23T07:26:48.103Z,23.43
2022-12-23T07:29:15.445Z,24.17
2022-12-23T07:31:42.972Z,26.40
2022-12-23T07:34:10.304Z,28.08
2022-12-23T07:36:37.622Z,28.17
2022-12-23T07:39:05.078Z,24.10
2022-12-23T07:41:32.341Z,25.30
2022-12-23T07:44:07.472Z,25.85
2022-12-23T07:46:35.052Z,22.52
2022-12-23T07:49:02.385Z,22.33
2022-12-23T07:51:29.820Z,22.10
2022-12-23T07:53:57.043Z,20.27
2022-12-23T07:56:24.390Z,23.42
2022-12-23T07:58:52.189Z,23.42
2022-12-23T08:01:19.924Z,17.67
2022-12-23T08:03:47.356Z,22.30
2022-12-23T08:06:15.367Z,19.75
2022-12-23T08:08:45.221Z,19.15
2022-12-23T08:11:13.468Z,21.48
2022-12-23T08:13:41.719Z,26.10
2022-12-23T08:16:09.409Z,24.93
2022-12-23T08:18:38.119Z,22.45
2022-12-23T08:21:13.253Z,27.33
2022-12-23T08:23:40.679Z,23.92
2022-12-23T08:26:12.608Z,24.33
2022-12-23T08:28:40.720Z,21.73
2022-12-23T08:31:13.001Z,27.27
2022-12-23T08:33:41.305Z,26.02
2022-12-23T08:36:09.500Z,25.27
2022-12-23T08:38:36.981Z,29.13
2022-12-23T08:41:08.988Z,22.83
2022-12-23T08:43:36.494Z,28.73
2022-12-23T08:46:04.244Z,23.60
2022-12-23T08:48:32.310Z,27.58
2022-12-23T08:51:12.477Z,29.60
2022-12-23T08:53:40.105Z,26.33
2022-12-23T08:56:10.757Z,21.85
2022-12-23T08:58:45.616Z,23.52
2022-12-23T09:01:14.023Z,24.45
2022-12-23T09:03:41.566Z,26.55
2022-12-23T09:06:28.616Z,26.43
2022-12-23T09:08:56.679Z,22.85
2022-12-23T09:11:25.377Z,22.48
2022-12-23T09:13:52.920Z,21.65
2022-12-23T09:16:20.389Z,19.25
2022-12-23T09:18:47.686Z,24.97
2022-12-23T09:21:16.630Z,19.48
2022-12-23T09:23:43.961Z,20.85
2022-12-23T09:26:11.521Z,17.10
2022-12-23T09:28:39.830Z,15.88
2022-12-23T09:31:11.417Z,16.47
2022-12-23T09:33:38.920Z,17.27
2022-12-23T09:36:06.655Z,16.35
2022-12-23T09:38:34.116Z,15.75
2022-12-23T09:41:24.921Z,15.10
2022-12-23T09:43:52.221Z,14.30
2022-12-23T09:46:21.821Z,18.58
2022-12-23T09:48:54.090Z,16.70
2022-12-23T09:51:22.751Z,14.63
2022-12-23T09:54:04.045Z,19.02
2022-12-23T09:56:53.171Z,17.23
2022-12-23T09:59:26.356Z,16.55
2022-12-23T10:02:16.581Z,17.52
2022-12-23T10:05:05.780Z,15.90
2022-12-23T10:07:39.930Z,15.77
2022-12-23T10:10:32.355Z,14.43
2022-12-23T10:13:00.691Z,15.35
2022-12-23T10:15:44.305Z,13.65
2022-12-23T10:18:47.133Z,15.82
2022-12-23T10:21:47.318Z,14.32
2022-12-23T10:24:24.936Z,13.73
2022-12-23T10:26:56.827Z,13.05
2022-12-23T10:29:25.469Z,12.23
2022-12-23T10:32:04.548Z,15.10
2022-12-23T10:34:38.783Z,12.02
2022-12-23T10:37:15.483Z,16.50
2022-12-23T10:39:53.293Z,15.27
2022-12-23T10:43:02.217Z,19.70
2022-12-23T10:45:50.770Z,15.98
2022-12-23T10:48:51.115Z,14.07
2022-12-23T10:51:21.482Z,16.27
2022-12-23T10:54:06.015Z,13.23
2022-12-23T10:56:33.342Z,12.48
2022-12-23T10:59:00.995Z,13.55
2022-12-23T11:01:30.397Z,13.25
2022-12-23T11:04:13.188Z,12.20
2022-12-23T11:06:43.044Z,12.25
2022-12-23T11:09:33.873Z,13.57
2022-12-23T11:12:02.722Z,13.02
2022-12-23T11:14:39.122Z,14.85
2022-12-23T11:17:18.824Z,15.97
2022-12-23T11:19:46.215Z,14.75
2022-12-23T11:22:31.376Z,13.70
2022-12-23T11:25:26.940Z,13.70
2022-12-23T11:28:15.477Z,17.33
2022-12-23T11:30:50.380Z,13.10
2022-12-23T11:33:32.050Z,13.40
2022-12-23T11:36:14.522Z,14.13
2022-12-23T11:38:59.101Z,13.57
2022-12-23T11:41:34.207Z,14.73
2022-12-23T11:44:28.565Z,16.67
2022-12-23T11:46:55.923Z,14.07
2022-12-23T11:49:25.141Z,17.25
2022-12-23T11:52:05.820Z,22.38
2022-12-23T11:54:33.526Z,15.35
2022-12-23T11:57:02.354Z,14.40
2022-12-23T11:59:36.038Z,13.10
2022-12-23T12:02:25.230Z,14.00
2022-12-23T12:05:15.582Z,11.00
2022-12-23T12:07:45.636Z,13.93
2022-12-23T12:10:18.180Z,21.07
2022-12-23T12:12:48.786Z,14.13
2022-12-23T12:15:40.700Z,15.13
2022-12-23T12:18:10.206Z,12.80
2022-12-23T12:20:39.792Z,16.77
2022-12-23T12:23:13.098Z,14.37
2022-12-23T12:25:43.441Z,13.73
2022-12-23T12:28:19.903Z,15.73
2022-12-23T12:30:49.594Z,15.32
2022-12-23T12:33:23.574Z,24.08
2022-12-23T12:36:05.525Z,18.60
2022-12-23T12:38:33.479Z,17.33
2022-12-23T12:41:19.495Z,11.75
2022-12-23T12:44:18.601Z,13.27
2022-12-23T12:46:55.844Z,14.43
2022-12-23T12:49:25.351Z,17.03
2022-12-23T12:52:14.114Z,16.50
2022-12-23T12:54:46.805Z,18.08
2022-12-23T12:57:18.659Z,19.50
2022-12-23T12:59:46.010Z,13.82
2022-12-23T13:02:32.406Z,15.50
2022-12-23T13:04:59.711Z,14.68
2022-12-23T13:07:48.576Z,15.48
2022-12-23T13:10:37.238Z,21.95
2022-12-23T13:13:23.540Z,17.52
2022-12-23T13:16:18.645Z,19.40
2022-12-23T13:19:24.957Z,19.88
2022-12-23T13:22:05.384Z,16.35
2022-12-23T13:24:38.552Z,16.75
2022-12-23T13:27:14.986Z,15.50
2022-12-23T13:30:24.318Z,16.13
2022-12-23T13:33:09.205Z,20.45
2022-12-23T13:36:05.058Z,16.85
2022-12-23T13:38:52.010Z,23.52
2022-12-23T13:41:36.362Z,16.55
2022-12-23T13:44:05.544Z,15.30
2022-12-23T13:47:10.295Z,15.50
2022-12-23T13:49:40.425Z,18.98
2022-12-23T13:52:35.679Z,17.63
2022-12-23T13:55:08.956Z,18.40
2022-12-23T13:57:42.167Z,18.30
2022-12-23T14:00:18.666Z,20.52
2022-12-23T14:02:58.263Z,22.85
2022-12-23T14:05:45.465Z,20.38
2022-12-23T14:08:18.883Z,19.15
2022-12-23T14:11:03.819Z,19.03
2022-12-23T14:13:59.426Z,17.73
2022-12-23T14:16:51.418Z,20.40
2022-12-23T14:19:18.826Z,21.95
2022-12-23T14:22:10.600Z,20.77
2022-12-23T14:24:50.008Z,24.00
2022-12-23T14:27:41.481Z,22.02
2022-12-23T14:30:33.850Z,23.13
2022-12-23T14:33:14.598Z,27.80
2022-12-23T14:35:42.889Z,90.47
2022-12-23T14:38:10.577Z,27.07
2022-12-23T14:40:37.864Z,38.53
2022-12-23T14:43:25.297Z,41.17
2022-12-23T14:45:56.850Z,41.80
2022-12-23T14:48:37.142Z,42.75
2022-12-23T14:51:22.668Z,45.00
2022-12-23T14:53:52.697Z,38.63
2022-12-23T14:56:20.105Z,51.08
2022-12-23T14:59:15.370Z,40.67
2022-12-23T15:01:43.590Z,34.53
2022-12-23T15:04:18.566Z,42.30
2022-12-23T15:06:55.641Z,51.05
2022-12-23T15:09:35.461Z,46.00
2022-12-23T15:12:06.373Z,39.58
2022-12-23T15:14:57.879Z,42.47
2022-12-23T15:17:33.033Z,39.37
2022-12-23T15:20:21.709Z,45.45
2022-12-23T15:22:49.224Z,50.25
2022-12-23T15:25:32.810Z,48.03
2022-12-23T15:28:02.225Z,46.17
2022-12-23T15:30:35.162Z,46.20
2022-12-23T15:33:27.918Z,64.70
2022-12-23T15:35:54.362Z,65.32
2022-12-23T15:38:21.738Z,52.13
2022-12-23T15:41:03.208Z,58.83
2022-12-23T15:43:30.621Z,68.03
2022-12-23T15:46:25.166Z,65.57
2022-12-23T15:48:56.790Z,63.17
2022-12-23T15:54:29.875Z,64.53
2022-12-23T15:56:57.971Z,64.60
2022-12-23T15:59:33.309Z,61.40
2022-12-23T16:02:32.613Z,60.45
2022-12-23T16:05:00.641Z,55.83
2022-12-23T16:07:43.047Z,60.22
2022-12-23T16:10:15.570Z,60.27
2022-12-23T16:12:42.842Z,54.25
2022-12-23T16:15:20.686Z,56.72
2022-12-23T16:17:47.980Z,58.05
2022-12-23T16:20:23.668Z,83.57
2022-12-23T16:22:55.143Z,114.00
2022-12-23T16:25:44.103Z,110.97
2022-12-23T16:28:26.513Z,126.53
2022-12-23T16:30:55.155Z,102.20
2022-12-23T16:33:44.325Z,96.07
2022-12-23T16:36:25.421Z,89.23
2022-12-23T16:39:14.405Z,80.93
2022-12-23T16:41:41.822Z,90.55
2022-12-23T16:44:09.167Z,138.07
2022-12-23T16:46:37.887Z,77.15
2022-12-23T16:49:06.588Z,88.10
2022-12-23T16:51:40.640Z,99.32
2022-12-23T16:54:12.615Z,103.25
2022-12-23T16:56:40.858Z,75.78
2022-12-23T16:59:08.659Z,72.03
2022-12-23T17:01:40.799Z,77.77
2022-12-23T17:04:09.137Z,74.32
2022-12-23T17:06:36.405Z,71.15
2022-12-23T17:09:05.194Z,67.13
2022-12-23T17:11:42.854Z,71.22
2022-12-23T17:14:20.960Z,70.07
2022-12-23T17:16:48.577Z,64.78
2022-12-23T17:19:18.225Z,62.75
2022-12-23T17:21:49.912Z,67.40
2022-12-23T17:24:18.747Z,64.85
2022-12-23T17:26:46.055Z,65.53
2022-12-23T17:29:13.339Z,62.67
2022-12-23T17:31:41.348Z,65.65
2022-12-23T17:34:19.345Z,66.82
2022-12-23T17:36:50.348Z,70.47
2022-12-23T17:39:19.129Z,64.13
2022-12-23T17:41:46.541Z,64.93
2022-12-23T17:44:14.782Z,65.75
2022-12-23T17:46:42.282Z,58.30
2022-12-23T17:49:09.581Z,64.75
2022-12-23T17:51:36.903Z,64.20
2022-12-23T17:54:05.901Z,67.60
2022-12-23T17:56:33.208Z,71.05
2022-12-23T17:59:00.503Z,79.82
2022-12-23T18:01:30.248Z,69.30
2022-12-23T18:03:58.285Z,77.00
2022-12-23T18:06:26.343Z,84.55
2022-12-23T18:08:53.736Z,84.80
2022-12-23T18:11:30.571Z,90.00
2022-12-23T18:13:57.842Z,91.10
2022-12-23T18:16:25.172Z,95.10
2022-12-23T18:18:53.013Z,96.57
2022-12-23T18:21:25.251Z,99.22
2022-12-23T18:23:53.575Z,106.95
2022-12-23T18:26:21.081Z,110.70
2022-12-23T18:28:48.381Z,112.17
2022-12-23T18:31:20.480Z,110.32
2022-12-23T18:33:47.960Z,106.60
2022-12-23T18:36:31.685Z,119.15
2022-12-23T18:38:59.081Z,116.05
2022-12-23T18:41:26.713Z,113.27
2022-12-23T18:43:54.295Z,110.70
2022-12-23T18:46:21.733Z,114.53
2022-12-23T18:48:49.198Z,119.78
2022-12-23T18:51:17.322Z,122.03
2022-12-23T18:53:45.628Z,129.23
2022-12-23T18:56:21.181Z,119.00
2022-12-23T18:58:48.940Z,118.90
2022-12-23T19:01:17.091Z,116.10
2022-12-23T19:03:44.556Z,118.43
2022-12-23T19:06:15.142Z,106.33
2022-12-23T19:08:42.678Z,116.95
2022-12-23T19:11:18.384Z,104.93
2022-12-23T19:13:45.921Z,93.65
2022-12-23T19:16:15.598Z,97.90
2022-12-23T19:18:43.551Z,104.20
2022-12-23T19:21:10.855Z,99.82
2022-12-23T19:23:39.798Z,91.05
2022-12-23T19:26:08.726Z,91.78
2022-12-23T19:28:37.169Z,94.50
2022-12-23T19:31:08.955Z,92.10
2022-12-23T19:33:40.184Z,85.05
2022-12-23T19:36:14.851Z,96.43
2022-12-23T19:38:42.222Z,94.55
2022-12-23T19:41:09.699Z,89.43
2022-12-23T19:43:37.919Z,91.60
2022-12-23T19:46:07.452Z,116.90
2022-12-23T19:48:34.895Z,113.63
2022-12-23T19:51:04.307Z,131.50
2022-12-23T19:53:31.731Z,126.47
2022-12-23T19:56:07.298Z,109.23
2022-12-23T19:58:35.711Z,130.05
2022-12-23T20:01:06.413Z,129.10
2022-12-23T20:03:33.894Z,124.93
2022-12-23T20:06:01.309Z,117.50
2022-12-23T20:08:28.657Z,113.00
2022-12-23T20:11:19.762Z,104.45
2022-12-23T20:13:47.211Z,92.88
2022-12-23T20:16:14.631Z,92.93
2022-12-23T20:18:42.004Z,99.40
2022-12-23T20:21:09.329Z,104.73
2022-12-23T20:23:36.683Z,99.00
2022-12-23T20:26:04.073Z,90.97
2022-12-23T20:28:31.555Z,93.93
2022-12-23T20:31:07.803Z,81.70
2022-12-23T20:33:38.592Z,71.30
2022-12-23T20:36:06.559Z,73.10
2022-12-23T20:38:34.935Z,72.32
2022-12-23T20:41:03.284Z,60.42
2022-12-23T20:43:30.844Z,52.58
2022-12-23T20:45:58.194Z,56.20
2022-12-23T20:48:31.667Z,56.20
2022-12-23T20:51:20.358Z,49.65
2022-12-23T20:53:47.681Z,46.90
2022-12-23T20:56:16.714Z,51.90
2022-12-23T20:58:56.142Z,51.10
2022-12-23T21:01:40.100Z,44.35
2022-12-23T21:04:09.547Z,47.13
2022-12-23T21:06:36.924Z,47.70
2022-12-23T21:09:05.971Z,43.65
2022-12-23T21:11:36.942Z,41.33
2022-12-23T21:14:07.152Z,42.05
2022-12-23T21:16:35.856Z,43.88
2022-12-23T21:19:03.799Z,61.42
2022-12-23T21:21:32.067Z,60.75
2022-12-23T21:24:00.946Z,51.33
2022-12-23T21:26:29.049Z,59.70
2022-12-23T21:29:00.490Z,49.03
2022-12-23T21:31:28.973Z,38.33
2022-12-23T21:33:56.551Z,38.85
2022-12-23T21:36:31.244Z,36.40
2022-12-23T21:38:58.883Z,36.83
2022-12-23T21:41:30.603Z,34.15
2022-12-23T21:43:58.277Z,34.90
2022-12-23T21:46:25.782Z,33.60
2022-12-23T21:48:53.197Z,29.27
2022-12-23T21:51:34.838Z,33.00
2022-12-23T21:54:06.135Z,33.05
2022-12-23T21:56:33.513Z,29.98
2022-12-23T21:59:02.685Z,27.45
2022-12-23T22:01:30.045Z,27.60
2022-12-23T22:03:57.684Z,20.73
2022-12-23T22:06:29.407Z,19.27
2022-12-23T22:08:56.886Z,17.98
2022-12-23T22:11:25.895Z,17.67
2022-12-23T22:13:53.245Z,20.17
2022-12-23T22:16:21.955Z,18.17
2022-12-23T22:18:49.488Z,19.80
2022-12-23T22:21:19.468Z,21.27
2022-12-23T22:23:46.935Z,18.88
2022-12-23T22:26:20.441Z,17.47
2022-12-23T22:28:51.861Z,19.10
2022-12-23T22:31:25.166Z,17.30
2022-12-23T22:33:52.453Z,18.90
2022-12-23T22:36:19.808Z,15.82
2022-12-23T22:38:55.149Z,16.70
2022-12-23T22:41:22.689Z,17.30
2022-12-23T22:43:50.141Z,18.42
2022-12-23T22:46:18.550Z,19.70
2022-12-23T22:48:46.473Z,20.92
2022-12-23T22:51:22.095Z,20.63
2022-12-23T22:53:49.512Z,20.55
2022-12-23T22:56:17.528Z,18.85
2022-12-23T22:58:44.833Z,15.95
2022-12-23T23:01:18.357Z,21.40
2022-12-23T23:03:45.632Z,16.80
2022-12-23T23:06:12.916Z,17.85
2022-12-23T23:08:41.466Z,19.75
2022-12-23T23:11:08.785Z,25.33
2022-12-23T23:13:36.138Z,23.73
2022-12-23T23:16:03.598Z,18.33
2022-12-23T23:18:30.952Z,15.95
2022-12-23T23:20:58.470Z,18.92
2022-12-23T23:23:25.784Z,14.25
2022-12-23T23:25:53.061Z,17.13
2022-12-23T23:28:20.407Z,17.47
2022-12-23T23:30:47.712Z,15.05
2022-12-23T23:33:15.057Z,19.55
2022-12-23T23:35:42.368Z,18.25
2022-12-23T23:38:09.620Z,19.35
2022-12-23T23:40:37.226Z,17.83
2022-12-23T23:43:04.587Z,24.25
2022-12-23T23:45:31.948Z,17.48
2022-12-23T23:47:59.305Z,18.83
2022-12-23T23:50:26.694Z,20.25
2022-12-23T23:52:53.952Z,18.40
2022-12-23T23:55:21.313Z,17.23
2022-12-23T23:57:48.600Z,19.08
